sensor_id;sensor_type;location;lat;lon;timestamp;P1;durP1;ratioP1;P2;durP2;ratioP2
49688;SDS011;70518;51.400;7.428;2023-10-13T00:00:32;9.68;;;7.97;;
49688;SDS011;70518;51.400;7.428;2023-10-13T00:03:01;14.40;;;8.65;;
49688;SDS011;70518;51.400;7.428;2023-10-13T00:05:31;11.05;;;8.23;;
49688;SDS011;70518;51.400;7.428;2023-10-13T00:08:01;12.57;;;7.47;;
49688;SDS011;70518;51.400;7.428;2023-10-13T00:10:28;10.20;;;7.80;;
49688;SDS011;70518;51.400;7.428;2023-10-13T00:12:54;11.75;;;7.50;;
49688;SDS011;70518;51.400;7.428;2023-10-13T00:15:30;10.88;;;7.05;;
49688;SDS011;70518;51.400;7.428;2023-10-13T00:18:03;7.78;;;6.70;;
49688;SDS011;70518;51.400;7.428;2023-10-13T00:20:34;8.20;;;5.82;;
49688;SDS011;70518;51.400;7.428;2023-10-13T00:23:02;9.02;;;6.38;;
49688;SDS011;70518;51.400;7.428;2023-10-13T00:25:28;11.75;;;6.00;;
49688;SDS011;70518;51.400;7.428;2023-10-13T00:27:59;11.40;;;5.88;;
49688;SDS011;70518;51.400;7.428;2023-10-13T00:30:26;9.02;;;5.43;;
49688;SDS011;70518;51.400;7.428;2023-10-13T00:33:02;9.70;;;5.32;;
49688;SDS011;70518;51.400;7.428;2023-10-13T00:35:28;6.22;;;5.07;;
49688;SDS011;70518;51.400;7.428;2023-10-13T00:38:00;7.15;;;5.00;;
49688;SDS011;70518;51.400;7.428;2023-10-13T00:40:37;7.28;;;4.40;;
49688;SDS011;70518;51.400;7.428;2023-10-13T00:43:03;7.85;;;5.00;;
49688;SDS011;70518;51.400;7.428;2023-10-13T00:45:52;8.48;;;5.03;;
49688;SDS011;70518;51.400;7.428;2023-10-13T00:48:32;8.57;;;4.22;;
49688;SDS011;70518;51.400;7.428;2023-10-13T00:51:00;8.90;;;3.97;;
49688;SDS011;70518;51.400;7.428;2023-10-13T00:53:43;5.50;;;3.67;;
49688;SDS011;70518;51.400;7.428;2023-10-13T00:56:10;9.05;;;4.00;;
49688;SDS011;70518;51.400;7.428;2023-10-13T00:58:46;7.60;;;3.78;;
49688;SDS011;70518;51.400;7.428;2023-10-13T01:01:12;6.63;;;3.80;;
49688;SDS011;70518;51.400;7.428;2023-10-13T01:03:49;5.25;;;3.85;;
49688;SDS011;70518;51.400;7.428;2023-10-13T01:06:26;9.93;;;4.78;;
49688;SDS011;70518;51.400;7.428;2023-10-13T01:11:46;6.38;;;3.90;;
49688;SDS011;70518;51.400;7.428;2023-10-13T01:14:17;7.18;;;3.83;;
49688;SDS011;70518;51.400;7.428;2023-10-13T01:16:44;8.63;;;4.20;;
49688;SDS011;70518;51.400;7.428;2023-10-13T01:19:16;11.13;;;4.60;;
49688;SDS011;70518;51.400;7.428;2023-10-13T01:21:52;5.93;;;3.70;;
49688;SDS011;70518;51.400;7.428;2023-10-13T01:24:26;6.93;;;4.22;;
49688;SDS011;70518;51.400;7.428;2023-10-13T01:26:56;6.00;;;4.10;;
49688;SDS011;70518;51.400;7.428;2023-10-13T01:29:21;6.57;;;3.78;;
49688;SDS011;70518;51.400;7.428;2023-10-13T01:31:51;7.47;;;4.43;;
49688;SDS011;70518;51.400;7.428;2023-10-13T01:34:17;7.10;;;4.60;;
49688;SDS011;70518;51.400;7.428;2023-10-13T01:36:53;5.95;;;3.55;;
49688;SDS011;70518;51.400;7.428;2023-10-13T01:39:20;8.18;;;4.43;;
49688;SDS011;70518;51.400;7.428;2023-10-13T01:41:51;8.10;;;4.15;;
49688;SDS011;70518;51.400;7.428;2023-10-13T01:44:20;6.35;;;3.75;;
49688;SDS011;70518;51.400;7.428;2023-10-13T01:46:55;6.63;;;3.67;;
49688;SDS011;70518;51.400;7.428;2023-10-13T01:49:37;4.90;;;3.75;;
49688;SDS011;70518;51.400;7.428;2023-10-13T01:52:12;4.90;;;3.60;;
49688;SDS011;70518;51.400;7.428;2023-10-13T01:54:41;6.28;;;3.92;;
49688;SDS011;70518;51.400;7.428;2023-10-13T01:57:09;6.95;;;4.10;;
49688;SDS011;70518;51.400;7.428;2023-10-13T01:59:45;7.78;;;3.90;;
49688;SDS011;70518;51.400;7.428;2023-10-13T02:02:13;5.47;;;3.83;;
49688;SDS011;70518;51.400;7.428;2023-10-13T02:04:39;7.78;;;4.55;;
49688;SDS011;70518;51.400;7.428;2023-10-13T02:07:17;12.15;;;4.25;;
49688;SDS011;70518;51.400;7.428;2023-10-13T02:09:42;10.23;;;4.07;;
49688;SDS011;70518;51.400;7.428;2023-10-13T02:12:08;7.80;;;4.25;;
49688;SDS011;70518;51.400;7.428;2023-10-13T02:14:34;6.25;;;4.00;;
49688;SDS011;70518;51.400;7.428;2023-10-13T02:17:01;5.22;;;3.45;;
49688;SDS011;70518;51.400;7.428;2023-10-13T02:19:41;4.80;;;3.90;;
49688;SDS011;70518;51.400;7.428;2023-10-13T02:22:10;7.97;;;4.40;;
49688;SDS011;70518;51.400;7.428;2023-10-13T02:24:37;6.90;;;3.55;;
49688;SDS011;70518;51.400;7.428;2023-10-13T02:27:07;5.90;;;3.47;;
49688;SDS011;70518;51.400;7.428;2023-10-13T02:29:41;6.45;;;4.10;;
49688;SDS011;70518;51.400;7.428;2023-10-13T02:32:07;4.97;;;3.55;;
49688;SDS011;70518;51.400;7.428;2023-10-13T02:34:38;6.05;;;3.70;;
49688;SDS011;70518;51.400;7.428;2023-10-13T02:37:08;9.13;;;3.85;;
49688;SDS011;70518;51.400;7.428;2023-10-13T02:39:34;8.15;;;4.55;;
49688;SDS011;70518;51.400;7.428;2023-10-13T02:42:01;5.13;;;3.78;;
49688;SDS011;70518;51.400;7.428;2023-10-13T02:44:31;5.43;;;4.07;;
49688;SDS011;70518;51.400;7.428;2023-10-13T02:46:58;7.10;;;3.90;;
49688;SDS011;70518;51.400;7.428;2023-10-13T02:49:27;5.80;;;3.78;;
49688;SDS011;70518;51.400;7.428;2023-10-13T02:51:56;4.13;;;3.33;;
49688;SDS011;70518;51.400;7.428;2023-10-13T02:54:23;5.65;;;3.50;;
49688;SDS011;70518;51.400;7.428;2023-10-13T02:56:55;6.07;;;3.22;;
49688;SDS011;70518;51.400;7.428;2023-10-13T02:59:28;3.67;;;3.22;;
49688;SDS011;70518;51.400;7.428;2023-10-13T03:02:15;7.05;;;3.72;;
49688;SDS011;70518;51.400;7.428;2023-10-13T03:04:54;5.30;;;3.15;;
49688;SDS011;70518;51.400;7.428;2023-10-13T03:07:47;5.20;;;3.58;;
49688;SDS011;70518;51.400;7.428;2023-10-13T03:10:15;6.97;;;3.40;;
49688;SDS011;70518;51.400;7.428;2023-10-13T03:12:44;6.53;;;3.88;;
49688;SDS011;70518;51.400;7.428;2023-10-13T03:15:13;7.85;;;3.80;;
49688;SDS011;70518;51.400;7.428;2023-10-13T03:17:42;5.95;;;3.65;;
49688;SDS011;70518;51.400;7.428;2023-10-13T03:20:09;4.70;;;3.53;;
49688;SDS011;70518;51.400;7.428;2023-10-13T03:22:39;5.85;;;3.42;;
49688;SDS011;70518;51.400;7.428;2023-10-13T03:25:04;7.20;;;3.92;;
49688;SDS011;70518;51.400;7.428;2023-10-13T03:27:34;6.57;;;3.78;;
49688;SDS011;70518;51.400;7.428;2023-10-13T03:30:18;6.68;;;4.40;;
49688;SDS011;70518;51.400;7.428;2023-10-13T03:32:46;7.38;;;4.65;;
49688;SDS011;70518;51.400;7.428;2023-10-13T03:35:13;8.70;;;4.20;;
49688;SDS011;70518;51.400;7.428;2023-10-13T03:37:48;6.00;;;3.90;;
49688;SDS011;70518;51.400;7.428;2023-10-13T03:40:14;6.30;;;4.38;;
49688;SDS011;70518;51.400;7.428;2023-10-13T03:42:52;8.65;;;4.45;;
49688;SDS011;70518;51.400;7.428;2023-10-13T03:45:25;5.97;;;4.07;;
49688;SDS011;70518;51.400;7.428;2023-10-13T03:47:51;6.05;;;4.45;;
49688;SDS011;70518;51.400;7.428;2023-10-13T03:50:17;7.32;;;4.57;;
49688;SDS011;70518;51.400;7.428;2023-10-13T03:52:54;8.27;;;5.10;;
49688;SDS011;70518;51.400;7.428;2023-10-13T03:55:22;10.90;;;5.18;;
49688;SDS011;70518;51.400;7.428;2023-10-13T03:57:51;7.07;;;5.00;;
49688;SDS011;70518;51.400;7.428;2023-10-13T04:00:17;7.65;;;5.18;;
49688;SDS011;70518;51.400;7.428;2023-10-13T04:02:53;6.47;;;5.30;;
49688;SDS011;70518;51.400;7.428;2023-10-13T04:05:32;7.38;;;4.72;;
49688;SDS011;70518;51.400;7.428;2023-10-13T04:08:09;7.82;;;4.70;;
49688;SDS011;70518;51.400;7.428;2023-10-13T04:10:53;7.28;;;4.57;;
49688;SDS011;70518;51.400;7.428;2023-10-13T04:13:19;8.32;;;4.28;;
49688;SDS011;70518;51.400;7.428;2023-10-13T04:16:04;7.28;;;5.28;;
49688;SDS011;70518;51.400;7.428;2023-10-13T04:18:48;9.25;;;4.70;;
49688;SDS011;70518;51.400;7.428;2023-10-13T04:21:19;6.25;;;4.30;;
49688;SDS011;70518;51.400;7.428;2023-10-13T04:24:04;8.27;;;4.88;;
49688;SDS011;70518;51.400;7.428;2023-10-13T04:26:45;6.60;;;4.72;;
49688;SDS011;70518;51.400;7.428;2023-10-13T04:29:31;10.80;;;4.93;;
49688;SDS011;70518;51.400;7.428;2023-10-13T04:32:15;8.35;;;5.05;;
49688;SDS011;70518;51.400;7.428;2023-10-13T04:34:54;9.45;;;4.43;;
49688;SDS011;70518;51.400;7.428;2023-10-13T04:37:23;9.77;;;4.80;;
49688;SDS011;70518;51.400;7.428;2023-10-13T04:39:58;10.02;;;4.65;;
49688;SDS011;70518;51.400;7.428;2023-10-13T04:42:36;9.13;;;5.07;;
49688;SDS011;70518;51.400;7.428;2023-10-13T04:45:14;8.98;;;5.60;;
49688;SDS011;70518;51.400;7.428;2023-10-13T04:48:01;6.72;;;4.63;;
49688;SDS011;70518;51.400;7.428;2023-10-13T04:50:48;6.80;;;4.60;;
49688;SDS011;70518;51.400;7.428;2023-10-13T04:53:22;6.65;;;4.28;;
49688;SDS011;70518;51.400;7.428;2023-10-13T04:56:00;6.18;;;4.15;;
49688;SDS011;70518;51.400;7.428;2023-10-13T04:58:31;8.40;;;3.53;;
49688;SDS011;70518;51.400;7.428;2023-10-13T05:00:59;12.18;;;4.80;;
49688;SDS011;70518;51.400;7.428;2023-10-13T05:03:46;7.18;;;4.07;;
49688;SDS011;70518;51.400;7.428;2023-10-13T05:06:29;6.68;;;3.80;;
49688;SDS011;70518;51.400;7.428;2023-10-13T05:09:07;6.57;;;4.38;;
49688;SDS011;70518;51.400;7.428;2023-10-13T05:11:51;8.82;;;4.57;;
49688;SDS011;70518;51.400;7.428;2023-10-13T05:14:35;8.88;;;4.82;;
49688;SDS011;70518;51.400;7.428;2023-10-13T05:17:19;7.30;;;4.03;;
49688;SDS011;70518;51.400;7.428;2023-10-13T05:20:02;7.90;;;4.63;;
49688;SDS011;70518;51.400;7.428;2023-10-13T05:22:47;5.20;;;3.72;;
49688;SDS011;70518;51.400;7.428;2023-10-13T05:25:44;6.35;;;4.82;;
49688;SDS011;70518;51.400;7.428;2023-10-13T05:28:28;6.50;;;4.63;;
49688;SDS011;70518;51.400;7.428;2023-10-13T05:31:12;5.85;;;3.92;;
49688;SDS011;70518;51.400;7.428;2023-10-13T05:33:56;8.98;;;4.90;;
49688;SDS011;70518;51.400;7.428;2023-10-13T05:36:40;6.45;;;4.05;;
49688;SDS011;70518;51.400;7.428;2023-10-13T05:39:24;8.18;;;3.47;;
49688;SDS011;70518;51.400;7.428;2023-10-13T05:42:08;7.75;;;4.10;;
49688;SDS011;70518;51.400;7.428;2023-10-13T05:44:52;7.55;;;4.38;;
49688;SDS011;70518;51.400;7.428;2023-10-13T05:47:36;6.72;;;4.40;;
49688;SDS011;70518;51.400;7.428;2023-10-13T05:50:07;5.82;;;3.75;;
49688;SDS011;70518;51.400;7.428;2023-10-13T05:52:46;8.55;;;3.65;;
49688;SDS011;70518;51.400;7.428;2023-10-13T05:55:27;5.95;;;3.67;;
49688;SDS011;70518;51.400;7.428;2023-10-13T05:58:12;8.35;;;4.18;;
49688;SDS011;70518;51.400;7.428;2023-10-13T06:00:56;6.78;;;3.90;;
49688;SDS011;70518;51.400;7.428;2023-10-13T06:03:41;8.77;;;3.50;;
49688;SDS011;70518;51.400;7.428;2023-10-13T06:06:25;7.97;;;4.18;;
49688;SDS011;70518;51.400;7.428;2023-10-13T06:09:09;6.93;;;3.78;;
49688;SDS011;70518;51.400;7.428;2023-10-13T06:11:52;9.75;;;4.03;;
49688;SDS011;70518;51.400;7.428;2023-10-13T06:14:36;5.57;;;2.83;;
49688;SDS011;70518;51.400;7.428;2023-10-13T06:17:20;6.38;;;3.53;;
49688;SDS011;70518;51.400;7.428;2023-10-13T06:20:05;7.32;;;3.20;;
49688;SDS011;70518;51.400;7.428;2023-10-13T06:22:49;5.88;;;2.72;;
49688;SDS011;70518;51.400;7.428;2023-10-13T06:25:33;7.63;;;3.25;;
49688;SDS011;70518;51.400;7.428;2023-10-13T06:28:17;5.18;;;3.13;;
49688;SDS011;70518;51.400;7.428;2023-10-13T06:31:01;4.13;;;2.50;;
49688;SDS011;70518;51.400;7.428;2023-10-13T06:33:31;5.75;;;3.15;;
49688;SDS011;70518;51.400;7.428;2023-10-13T06:35:59;6.10;;;2.67;;
49688;SDS011;70518;51.400;7.428;2023-10-13T06:38:29;4.63;;;2.97;;
49688;SDS011;70518;51.400;7.428;2023-10-13T06:41:01;4.60;;;2.30;;
49688;SDS011;70518;51.400;7.428;2023-10-13T06:43:30;7.38;;;2.65;;
49688;SDS011;70518;51.400;7.428;2023-10-13T06:46:05;6.57;;;2.78;;
49688;SDS011;70518;51.400;7.428;2023-10-13T06:48:39;3.85;;;2.38;;
49688;SDS011;70518;51.400;7.428;2023-10-13T06:51:05;5.03;;;2.83;;
49688;SDS011;70518;51.400;7.428;2023-10-13T06:53:42;5.15;;;2.05;;
49688;SDS011;70518;51.400;7.428;2023-10-13T06:56:11;3.20;;;2.20;;
49688;SDS011;70518;51.400;7.428;2023-10-13T06:58:42;4.97;;;2.40;;
49688;SDS011;70518;51.400;7.428;2023-10-13T07:01:11;4.50;;;2.20;;
49688;SDS011;70518;51.400;7.428;2023-10-13T07:03:44;5.18;;;2.50;;
49688;SDS011;70518;51.400;7.428;2023-10-13T07:06:17;2.55;;;2.03;;
49688;SDS011;70518;51.400;7.428;2023-10-13T07:08:44;3.85;;;2.25;;
49688;SDS011;70518;51.400;7.428;2023-10-13T07:11:16;7.70;;;3.65;;
49688;SDS011;70518;51.400;7.428;2023-10-13T07:13:57;8.40;;;3.00;;
49688;SDS011;70518;51.400;7.428;2023-10-13T07:16:23;7.20;;;2.85;;
49688;SDS011;70518;51.400;7.428;2023-10-13T07:18:48;4.45;;;3.00;;
49688;SDS011;70518;51.400;7.428;2023-10-13T07:21:19;4.85;;;3.38;;
49688;SDS011;70518;51.400;7.428;2023-10-13T07:23:56;6.80;;;3.70;;
49688;SDS011;70518;51.400;7.428;2023-10-13T07:26:34;6.03;;;3.90;;
49688;SDS011;70518;51.400;7.428;2023-10-13T07:29:07;4.90;;;4.05;;
49688;SDS011;70518;51.400;7.428;2023-10-13T07:31:33;4.88;;;3.70;;
49688;SDS011;70518;51.400;7.428;2023-10-13T07:33:58;8.82;;;4.53;;
49688;SDS011;70518;51.400;7.428;2023-10-13T07:36:35;9.65;;;3.80;;
49688;SDS011;70518;51.400;7.428;2023-10-13T07:39:04;9.07;;;4.97;;
49688;SDS011;70518;51.400;7.428;2023-10-13T07:41:50;5.72;;;3.58;;
49688;SDS011;70518;51.400;7.428;2023-10-13T07:44:19;6.32;;;3.70;;
49688;SDS011;70518;51.400;7.428;2023-10-13T07:46:53;10.98;;;4.38;;
49688;SDS011;70518;51.400;7.428;2023-10-13T07:49:27;6.68;;;4.05;;
49688;SDS011;70518;51.400;7.428;2023-10-13T07:52:00;12.25;;;3.85;;
49688;SDS011;70518;51.400;7.428;2023-10-13T07:54:41;11.25;;;4.15;;
49688;SDS011;70518;51.400;7.428;2023-10-13T07:57:07;7.00;;;3.45;;
49688;SDS011;70518;51.400;7.428;2023-10-13T07:59:33;10.05;;;3.50;;
49688;SDS011;70518;51.400;7.428;2023-10-13T08:02:00;7.20;;;3.50;;
49688;SDS011;70518;51.400;7.428;2023-10-13T08:04:40;11.38;;;4.18;;
49688;SDS011;70518;51.400;7.428;2023-10-13T08:07:05;12.98;;;3.88;;
49688;SDS011;70518;51.400;7.428;2023-10-13T08:09:42;11.18;;;3.20;;
49688;SDS011;70518;51.400;7.428;2023-10-13T08:12:08;12.48;;;3.80;;
49688;SDS011;70518;51.400;7.428;2023-10-13T08:14:36;12.48;;;3.38;;
49688;SDS011;70518;51.400;7.428;2023-10-13T08:17:08;15.23;;;4.00;;
49688;SDS011;70518;51.400;7.428;2023-10-13T08:19:37;10.68;;;3.72;;
49688;SDS011;70518;51.400;7.428;2023-10-13T08:22:13;10.65;;;3.70;;
49688;SDS011;70518;51.400;7.428;2023-10-13T08:24:44;9.93;;;3.25;;
49688;SDS011;70518;51.400;7.428;2023-10-13T08:27:10;9.75;;;4.00;;
49688;SDS011;70518;51.400;7.428;2023-10-13T08:29:40;13.77;;;4.20;;
49688;SDS011;70518;51.400;7.428;2023-10-13T08:32:30;10.45;;;3.63;;
49688;SDS011;70518;51.400;7.428;2023-10-13T08:34:55;10.30;;;3.60;;
49688;SDS011;70518;51.400;7.428;2023-10-13T08:37:34;9.60;;;4.13;;
49688;SDS011;70518;51.400;7.428;2023-10-13T08:40:12;10.30;;;3.60;;
49688;SDS011;70518;51.400;7.428;2023-10-13T08:42:56;11.45;;;3.70;;
49688;SDS011;70518;51.400;7.428;2023-10-13T08:45:28;10.20;;;3.25;;
49688;SDS011;70518;51.400;7.428;2023-10-13T08:47:55;8.43;;;3.10;;
49688;SDS011;70518;51.400;7.428;2023-10-13T08:50:38;10.95;;;3.55;;
49688;SDS011;70518;51.400;7.428;2023-10-13T08:53:16;8.88;;;3.42;;
49688;SDS011;70518;51.400;7.428;2023-10-13T08:56:07;12.88;;;3.40;;
49688;SDS011;70518;51.400;7.428;2023-10-13T08:58:48;13.70;;;3.95;;
49688;SDS011;70518;51.400;7.428;2023-10-13T09:01:24;5.88;;;2.90;;
49688;SDS011;70518;51.400;7.428;2023-10-13T09:04:24;13.98;;;3.97;;
49688;SDS011;70518;51.400;7.428;2023-10-13T09:06:59;8.52;;;3.25;;
49688;SDS011;70518;51.400;7.428;2023-10-13T09:12:16;12.32;;;3.45;;
49688;SDS011;70518;51.400;7.428;2023-10-13T09:14:54;8.80;;;2.95;;
49688;SDS011;70518;51.400;7.428;2023-10-13T09:17:30;10.40;;;2.65;;
49688;SDS011;70518;51.400;7.428;2023-10-13T09:20:08;9.45;;;3.33;;
49688;SDS011;70518;51.400;7.428;2023-10-13T09:22:53;13.68;;;3.60;;
49688;SDS011;70518;51.400;7.428;2023-10-13T09:25:26;7.82;;;3.38;;
49688;SDS011;70518;51.400;7.428;2023-10-13T09:28:00;6.72;;;3.03;;
49688;SDS011;70518;51.400;7.428;2023-10-13T09:30:26;7.93;;;2.72;;
49688;SDS011;70518;51.400;7.428;2023-10-13T09:32:59;9.57;;;2.90;;
49688;SDS011;70518;51.400;7.428;2023-10-13T09:35:40;8.93;;;2.78;;
49688;SDS011;70518;51.400;7.428;2023-10-13T09:38:08;10.15;;;2.78;;
49688;SDS011;70518;51.400;7.428;2023-10-13T09:40:36;10.52;;;3.33;;
49688;SDS011;70518;51.400;7.428;2023-10-13T09:43:11;9.63;;;3.63;;
49688;SDS011;70518;51.400;7.428;2023-10-13T09:45:40;9.77;;;3.40;;
49688;SDS011;70518;51.400;7.428;2023-10-13T09:48:22;5.93;;;2.95;;
49688;SDS011;70518;51.400;7.428;2023-10-13T09:50:51;9.40;;;2.88;;
49688;SDS011;70518;51.400;7.428;2023-10-13T09:53:24;9.07;;;3.03;;
49688;SDS011;70518;51.400;7.428;2023-10-13T09:55:52;9.85;;;2.92;;
49688;SDS011;70518;51.400;7.428;2023-10-13T09:58:26;7.38;;;2.78;;
49688;SDS011;70518;51.400;7.428;2023-10-13T10:01:02;9.45;;;3.42;;
49688;SDS011;70518;51.400;7.428;2023-10-13T10:03:46;10.50;;;2.60;;
49688;SDS011;70518;51.400;7.428;2023-10-13T10:06:32;13.02;;;3.00;;
49688;SDS011;70518;51.400;7.428;2023-10-13T10:09:05;10.43;;;3.22;;
49688;SDS011;70518;51.400;7.428;2023-10-13T10:11:57;9.15;;;2.70;;
49688;SDS011;70518;51.400;7.428;2023-10-13T10:14:46;11.07;;;4.07;;
49688;SDS011;70518;51.400;7.428;2023-10-13T10:18:18;7.82;;;3.42;;
49688;SDS011;70518;51.400;7.428;2023-10-13T10:20:47;9.63;;;3.47;;
49688;SDS011;70518;51.400;7.428;2023-10-13T10:23:26;12.52;;;3.10;;
49688;SDS011;70518;51.400;7.428;2023-10-13T10:25:54;8.77;;;3.22;;
49688;SDS011;70518;51.400;7.428;2023-10-13T10:28:38;8.65;;;3.42;;
49688;SDS011;70518;51.400;7.428;2023-10-13T10:31:07;6.70;;;3.10;;
49688;SDS011;70518;51.400;7.428;2023-10-13T10:33:35;11.68;;;3.30;;
49688;SDS011;70518;51.400;7.428;2023-10-13T10:36:00;11.77;;;3.78;;
49688;SDS011;70518;51.400;7.428;2023-10-13T10:38:26;10.35;;;3.55;;
49688;SDS011;70518;51.400;7.428;2023-10-13T10:40:58;11.15;;;2.92;;
49688;SDS011;70518;51.400;7.428;2023-10-13T10:46:17;11.13;;;3.47;;
49688;SDS011;70518;51.400;7.428;2023-10-13T10:48:50;9.68;;;3.22;;
49688;SDS011;70518;51.400;7.428;2023-10-13T10:51:21;10.20;;;3.15;;
49688;SDS011;70518;51.400;7.428;2023-10-13T10:53:50;10.57;;;3.20;;
49688;SDS011;70518;51.400;7.428;2023-10-13T10:56:18;7.25;;;3.63;;
49688;SDS011;70518;51.400;7.428;2023-10-13T10:58:59;7.78;;;3.42;;
49688;SDS011;70518;51.400;7.428;2023-10-13T11:01:29;10.75;;;3.75;;
49688;SDS011;70518;51.400;7.428;2023-10-13T11:04:11;10.55;;;3.53;;
49688;SDS011;70518;51.400;7.428;2023-10-13T11:06:47;11.77;;;4.32;;
49688;SDS011;70518;51.400;7.428;2023-10-13T11:09:14;11.55;;;3.88;;
49688;SDS011;70518;51.400;7.428;2023-10-13T11:11:55;7.57;;;3.65;;
49688;SDS011;70518;51.400;7.428;2023-10-13T11:14:28;6.68;;;3.55;;
49688;SDS011;70518;51.400;7.428;2023-10-13T11:16:55;11.40;;;4.40;;
49688;SDS011;70518;51.400;7.428;2023-10-13T11:19:44;7.18;;;3.80;;
49688;SDS011;70518;51.400;7.428;2023-10-13T11:24:57;11.35;;;5.53;;
49688;SDS011;70518;51.400;7.428;2023-10-13T11:27:31;12.63;;;4.72;;
49688;SDS011;70518;51.400;7.428;2023-10-13T11:30:10;10.43;;;5.28;;
49688;SDS011;70518;51.400;7.428;2023-10-13T11:32:43;7.43;;;3.13;;
49688;SDS011;70518;51.400;7.428;2023-10-13T11:35:09;11.82;;;3.50;;
49688;SDS011;70518;51.400;7.428;2023-10-13T11:37:45;10.82;;;3.85;;
49688;SDS011;70518;51.400;7.428;2023-10-13T11:40:20;8.13;;;3.97;;
49688;SDS011;70518;51.400;7.428;2023-10-13T11:43:05;9.63;;;3.95;;
49688;SDS011;70518;51.400;7.428;2023-10-13T11:45:30;9.55;;;4.35;;
49688;SDS011;70518;51.400;7.428;2023-10-13T11:47:56;8.95;;;3.65;;
49688;SDS011;70518;51.400;7.428;2023-10-13T11:50:25;14.93;;;6.80;;
49688;SDS011;70518;51.400;7.428;2023-10-13T11:53:00;10.75;;;5.38;;
49688;SDS011;70518;51.400;7.428;2023-10-13T11:55:25;10.73;;;4.68;;
49688;SDS011;70518;51.400;7.428;2023-10-13T11:57:51;15.02;;;5.35;;
49688;SDS011;70518;51.400;7.428;2023-10-13T12:00:16;14.77;;;5.45;;
49688;SDS011;70518;51.400;7.428;2023-10-13T12:03:11;15.85;;;7.40;;
49688;SDS011;70518;51.400;7.428;2023-10-13T12:05:55;11.18;;;4.60;;
49688;SDS011;70518;51.400;7.428;2023-10-13T12:08:39;12.02;;;4.97;;
49688;SDS011;70518;51.400;7.428;2023-10-13T12:11:14;16.15;;;7.13;;
49688;SDS011;70518;51.400;7.428;2023-10-13T12:13:57;10.75;;;4.10;;
49688;SDS011;70518;51.400;7.428;2023-10-13T12:16:23;8.15;;;4.70;;
49688;SDS011;70518;51.400;7.428;2023-10-13T12:18:59;7.97;;;4.18;;
49688;SDS011;70518;51.400;7.428;2023-10-13T12:21:26;8.88;;;4.10;;
49688;SDS011;70518;51.400;7.428;2023-10-13T12:23:51;12.98;;;5.00;;
49688;SDS011;70518;51.400;7.428;2023-10-13T12:26:18;11.32;;;4.20;;
49688;SDS011;70518;51.400;7.428;2023-10-13T12:28:44;6.57;;;4.28;;
49688;SDS011;70518;51.400;7.428;2023-10-13T12:31:16;10.68;;;5.57;;
49688;SDS011;70518;51.400;7.428;2023-10-13T12:33:42;7.43;;;3.80;;
49688;SDS011;70518;51.400;7.428;2023-10-13T12:36:08;12.30;;;4.68;;
49688;SDS011;70518;51.400;7.428;2023-10-13T12:38:37;12.07;;;4.60;;
49688;SDS011;70518;51.400;7.428;2023-10-13T12:41:12;11.13;;;5.10;;
49688;SDS011;70518;51.400;7.428;2023-10-13T12:43:56;13.35;;;4.38;;
49688;SDS011;70518;51.400;7.428;2023-10-13T12:46:40;10.27;;;4.93;;
49688;SDS011;70518;51.400;7.428;2023-10-13T12:49:24;9.98;;;4.70;;
49688;SDS011;70518;51.400;7.428;2023-10-13T12:52:08;11.80;;;4.50;;
49688;SDS011;70518;51.400;7.428;2023-10-13T12:54:41;12.75;;;4.47;;
49688;SDS011;70518;51.400;7.428;2023-10-13T12:59:36;9.27;;;3.83;;
49688;SDS011;70518;51.400;7.428;2023-10-13T13:02:03;11.52;;;3.80;;
49688;SDS011;70518;51.400;7.428;2023-10-13T13:04:32;9.20;;;4.30;;
49688;SDS011;70518;51.400;7.428;2023-10-13T13:07:01;9.18;;;3.80;;
49688;SDS011;70518;51.400;7.428;2023-10-13T13:09:28;12.48;;;4.07;;
49688;SDS011;70518;51.400;7.428;2023-10-13T13:11:54;10.45;;;3.60;;
49688;SDS011;70518;51.400;7.428;2023-10-13T13:14:23;7.45;;;3.88;;
49688;SDS011;70518;51.400;7.428;2023-10-13T13:16:55;12.45;;;4.43;;
49688;SDS011;70518;51.400;7.428;2023-10-13T13:19:33;12.23;;;4.53;;
49688;SDS011;70518;51.400;7.428;2023-10-13T13:22:04;9.02;;;3.03;;
49688;SDS011;70518;51.400;7.428;2023-10-13T13:24:30;12.02;;;3.85;;
49688;SDS011;70518;51.400;7.428;2023-10-13T13:26:56;8.48;;;3.25;;
49688;SDS011;70518;51.400;7.428;2023-10-13T13:29:27;13.23;;;3.28;;
49688;SDS011;70518;51.400;7.428;2023-10-13T13:31:54;7.97;;;3.00;;
49688;SDS011;70518;51.400;7.428;2023-10-13T13:34:20;6.72;;;3.13;;
49688;SDS011;70518;51.400;7.428;2023-10-13T13:36:46;8.45;;;3.35;;
49688;SDS011;70518;51.400;7.428;2023-10-13T13:39:17;12.02;;;3.08;;
49688;SDS011;70518;51.400;7.428;2023-10-13T13:41:54;12.25;;;2.88;;
49688;SDS011;70518;51.400;7.428;2023-10-13T13:44:22;10.90;;;3.53;;
49688;SDS011;70518;51.400;7.428;2023-10-13T13:46:54;11.05;;;3.55;;
49688;SDS011;70518;51.400;7.428;2023-10-13T13:49:21;9.90;;;3.13;;
49688;SDS011;70518;51.400;7.428;2023-10-13T13:51:54;12.88;;;3.63;;
49688;SDS011;70518;51.400;7.428;2023-10-13T13:54:20;12.13;;;3.65;;
49688;SDS011;70518;51.400;7.428;2023-10-13T13:56:45;9.27;;;3.78;;
49688;SDS011;70518;51.400;7.428;2023-10-13T13:59:11;9.27;;;2.95;;
49688;SDS011;70518;51.400;7.428;2023-10-13T14:01:40;8.23;;;2.80;;
49688;SDS011;70518;51.400;7.428;2023-10-13T14:04:09;11.77;;;2.75;;
49688;SDS011;70518;51.400;7.428;2023-10-13T14:06:35;8.77;;;2.40;;
49688;SDS011;70518;51.400;7.428;2023-10-13T14:09:00;8.48;;;3.10;;
49688;SDS011;70518;51.400;7.428;2023-10-13T14:11:38;7.68;;;2.63;;
49688;SDS011;70518;51.400;7.428;2023-10-13T14:14:13;10.60;;;3.20;;
49688;SDS011;70518;51.400;7.428;2023-10-13T14:16:52;10.10;;;2.80;;
49688;SDS011;70518;51.400;7.428;2023-10-13T14:19:18;9.93;;;3.15;;
49688;SDS011;70518;51.400;7.428;2023-10-13T14:21:51;9.73;;;2.85;;
49688;SDS011;70518;51.400;7.428;2023-10-13T14:24:18;7.68;;;2.85;;
49688;SDS011;70518;51.400;7.428;2023-10-13T14:26:52;12.90;;;2.92;;
49688;SDS011;70518;51.400;7.428;2023-10-13T14:29:17;12.60;;;3.33;;
49688;SDS011;70518;51.400;7.428;2023-10-13T14:31:43;9.50;;;2.97;;
49688;SDS011;70518;51.400;7.428;2023-10-13T14:34:08;12.45;;;3.08;;
49688;SDS011;70518;51.400;7.428;2023-10-13T14:36:35;13.85;;;2.80;;
49688;SDS011;70518;51.400;7.428;2023-10-13T14:39:00;7.53;;;2.40;;
49688;SDS011;70518;51.400;7.428;2023-10-13T14:41:27;12.05;;;2.90;;
49688;SDS011;70518;51.400;7.428;2023-10-13T14:43:53;10.02;;;2.35;;
49688;SDS011;70518;51.400;7.428;2023-10-13T14:46:21;9.35;;;2.83;;
49688;SDS011;70518;51.400;7.428;2023-10-13T14:48:48;10.60;;;2.58;;
49688;SDS011;70518;51.400;7.428;2023-10-13T14:51:16;9.00;;;3.25;;
49688;SDS011;70518;51.400;7.428;2023-10-13T14:53:42;6.82;;;2.80;;
49688;SDS011;70518;51.400;7.428;2023-10-13T14:56:11;9.48;;;2.50;;
49688;SDS011;70518;51.400;7.428;2023-10-13T14:58:37;13.77;;;2.67;;
49688;SDS011;70518;51.400;7.428;2023-10-13T15:01:10;7.18;;;2.65;;
49688;SDS011;70518;51.400;7.428;2023-10-13T15:03:43;12.82;;;3.28;;
49688;SDS011;70518;51.400;7.428;2023-10-13T15:06:22;13.40;;;3.08;;
49688;SDS011;70518;51.400;7.428;2023-10-13T15:08:54;13.27;;;2.78;;
49688;SDS011;70518;51.400;7.428;2023-10-13T15:11:21;14.50;;;3.22;;
49688;SDS011;70518;51.400;7.428;2023-10-13T15:13:51;11.38;;;3.47;;
49688;SDS011;70518;51.400;7.428;2023-10-13T15:16:18;13.38;;;3.50;;
49688;SDS011;70518;51.400;7.428;2023-10-13T15:18:51;8.85;;;2.50;;
49688;SDS011;70518;51.400;7.428;2023-10-13T15:21:28;16.08;;;3.35;;
49688;SDS011;70518;51.400;7.428;2023-10-13T15:23:59;13.23;;;2.63;;
49688;SDS011;70518;51.400;7.428;2023-10-13T15:26:42;12.65;;;3.22;;
49688;SDS011;70518;51.400;7.428;2023-10-13T15:29:15;9.98;;;2.75;;
49688;SDS011;70518;51.400;7.428;2023-10-13T15:31:42;11.60;;;3.08;;
49688;SDS011;70518;51.400;7.428;2023-10-13T15:34:30;7.28;;;2.05;;